HFC Logo
[Quelle: ADDS]
METAR
EDDW 142250Z 20004KT 9999 -SHRA BKN030 20/19 Q1014 RESHRA =
TAF
EDDW 141700Z 1418/1518 28005KT CAVOK BECMG 1419/1421 VRB02KT PROB30 TEMPO 1503/1506 0500 FG =
BCMT / ECET: 03:23 / 19:35 UTC (EDDW 2020-08-15)

printlogo=no